Terminal Aerodrome Forecast
Issued by NWS

Home | Current Version | Previous Version | Graphics & Text | Print | Product List | Glossary On
Versions: 1 2 3 4 5 6 7 8 9 10 11
000
FTUS43 KBIS 270529
TAFMOT
TAF
KMOT 270529Z 2706/2806 19007KT P6SM SCT090 BKN120
     FM271100 22009KT P6SM SCT120
     FM271500 26011KT P6SM FEW130
     FM271900 31016G23KT P6SM SKC
     FM280100 29008KT P6SM SKC=

USA.gov is the U.S. government's official web portal to all federal, state and local government web resources and services.